createdAt,value
2019-01-12T00:00:30.651Z,6.50
2019-01-12T00:03:00.056Z,6.50
2019-01-12T00:05:29.414Z,6.50
2019-01-12T00:07:59.085Z,6.50
2019-01-12T00:10:28.741Z,6.50
2019-01-12T00:12:58.160Z,6.50
2019-01-12T00:15:27.503Z,6.50
2019-01-12T00:17:57.202Z,6.50
2019-01-12T00:20:26.582Z,6.50
2019-01-12T00:22:55.968Z,6.50
2019-01-12T00:25:29.032Z,6.50
2019-01-12T00:27:58.615Z,6.50
2019-01-12T00:30:28.118Z,6.50
2019-01-12T00:32:57.539Z,6.60
2019-01-12T00:35:26.979Z,6.60
2019-01-12T00:37:56.666Z,6.60
2019-01-12T00:40:26.375Z,6.60
2019-01-12T00:42:56.138Z,6.60
2019-01-12T00:45:25.518Z,6.60
2019-01-12T00:47:55.056Z,6.60
2019-01-12T00:50:24.401Z,6.60
2019-01-12T00:52:53.671Z,6.60
2019-01-12T00:55:23.343Z,6.60
2019-01-12T00:57:52.708Z,6.50
2019-01-12T01:00:23.709Z,6.50
2019-01-12T01:02:53.217Z,6.60
2019-01-12T01:05:22.890Z,6.50
2019-01-12T01:07:52.288Z,6.50
2019-01-12T01:10:22.753Z,6.50
2019-01-12T01:12:52.115Z,6.50
2019-01-12T01:15:21.488Z,6.50
2019-01-12T01:17:51.034Z,6.50
2019-01-12T01:20:20.597Z,6.50
2019-01-12T01:22:49.943Z,6.50
2019-01-12T01:25:19.365Z,6.50
2019-01-12T01:27:48.808Z,6.50
2019-01-12T01:30:19.502Z,6.50
2019-01-12T01:32:48.891Z,6.50
2019-01-12T01:35:18.264Z,6.50
2019-01-12T01:37:47.662Z,6.50
2019-01-12T01:40:18.560Z,6.60
2019-01-12T01:42:47.969Z,6.50
2019-01-12T01:45:18.033Z,6.60
2019-01-12T01:47:47.433Z,6.60
2019-01-12T01:50:17.158Z,6.60
2019-01-12T01:52:46.515Z,6.60
2019-01-12T01:55:15.900Z,6.60
2019-01-12T01:57:45.255Z,6.60
2019-01-12T02:00:16.986Z,6.60
2019-01-12T02:02:46.390Z,6.60
2019-01-12T02:05:15.796Z,6.60
2019-01-12T02:07:45.133Z,6.60
2019-01-12T02:10:22.398Z,6.60
2019-01-12T02:12:53.968Z,6.60
2019-01-12T02:15:23.974Z,6.60
2019-01-12T02:17:53.370Z,6.60
2019-01-12T02:20:23.265Z,6.60
2019-01-12T02:22:52.662Z,6.60
2019-01-12T02:25:22.029Z,6.60
2019-01-12T02:27:51.486Z,6.70
2019-01-12T02:30:25.304Z,6.70
2019-01-12T02:32:55.669Z,6.70
2019-01-12T02:35:26.609Z,6.70
2019-01-12T02:37:56.129Z,6.70
2019-01-12T02:40:25.891Z,6.70
2019-01-12T02:42:55.533Z,6.70
2019-01-12T02:45:25.029Z,6.70
2019-01-12T02:47:55.116Z,6.70
2019-01-12T02:50:24.438Z,6.70
2019-01-12T02:52:53.850Z,6.70
2019-01-12T02:55:23.203Z,6.70
2019-01-12T02:57:52.933Z,6.70
2019-01-12T03:00:22.974Z,6.70
2019-01-12T03:02:52.324Z,6.70
2019-01-12T03:05:24.230Z,6.80
2019-01-12T03:07:53.663Z,6.80
2019-01-12T03:10:23.071Z,6.80
2019-01-12T03:12:52.425Z,6.80
2019-01-12T03:15:21.921Z,6.80
2019-01-12T03:17:51.578Z,6.80
2019-01-12T03:20:21.072Z,6.80
2019-01-12T03:22:50.441Z,6.80
2019-01-12T03:25:19.849Z,6.80
2019-01-12T03:27:49.493Z,6.80
2019-01-12T03:30:19.757Z,6.80
2019-01-12T03:32:49.301Z,6.80
2019-01-12T03:35:19.079Z,6.70
2019-01-12T03:37:48.550Z,6.70
2019-01-12T03:40:20.106Z,6.70
2019-01-12T03:42:49.486Z,6.70
2019-01-12T03:45:19.981Z,6.70
2019-01-12T03:47:49.450Z,6.70
2019-01-12T03:50:19.330Z,6.70
2019-01-12T03:52:48.695Z,6.70
2019-01-12T03:55:25.213Z,6.60
2019-01-12T03:57:49.298Z,6.70
2019-01-12T04:00:21.214Z,6.60
2019-01-12T04:02:50.705Z,6.60
2019-01-12T04:05:20.141Z,6.60
2019-01-12T04:07:49.539Z,6.60
2019-01-12T04:10:18.888Z,6.60
2019-01-12T04:12:48.284Z,6.60
2019-01-12T04:15:17.654Z,6.50
2019-01-12T04:17:47.181Z,6.50
2019-01-12T04:20:17.642Z,6.50
2019-01-12T04:22:47.333Z,6.50
2019-01-12T04:25:16.707Z,6.50
2019-01-12T04:27:46.201Z,6.50
2019-01-12T04:30:17.317Z,6.50
2019-01-12T04:32:46.727Z,6.40
2019-01-12T04:35:16.206Z,6.40
2019-01-12T04:37:45.573Z,6.40
2019-01-12T04:40:23.795Z,6.40
2019-01-12T04:42:53.214Z,6.40
2019-01-12T04:45:22.493Z,6.40
2019-01-12T04:47:51.876Z,6.40
2019-01-12T04:50:21.266Z,6.40
2019-01-12T04:52:50.651Z,6.40
2019-01-12T04:55:20.076Z,6.50
2019-01-12T04:57:49.486Z,6.40
2019-01-12T05:00:19.577Z,6.40
2019-01-12T05:02:49.046Z,6.50
2019-01-12T05:05:19.094Z,6.50
2019-01-12T05:07:48.467Z,6.40
2019-01-12T05:10:18.284Z,6.40
2019-01-12T05:12:47.651Z,6.50
2019-01-12T05:15:17.193Z,6.40
2019-01-12T05:17:46.546Z,6.50
2019-01-12T05:20:20.313Z,6.50
2019-01-12T05:22:50.002Z,6.50
2019-01-12T05:25:19.457Z,6.50
2019-01-12T05:27:49.193Z,6.40
2019-01-12T05:30:23.107Z,6.40
2019-01-12T05:32:52.556Z,6.50
2019-01-12T05:35:21.963Z,6.40
2019-01-12T05:37:51.359Z,6.50
2019-01-12T05:40:20.765Z,6.50
2019-01-12T05:42:50.156Z,6.50
2019-01-12T05:45:19.568Z,6.50
2019-01-12T05:47:48.909Z,6.50
2019-01-12T05:50:18.609Z,6.50
2019-01-12T05:52:48.126Z,6.40
2019-01-12T05:55:17.545Z,6.40
2019-01-12T05:57:47.231Z,6.40
2019-01-12T06:00:18.857Z,6.40
2019-01-12T06:02:48.241Z,6.40
2019-01-12T06:05:17.619Z,6.40
2019-01-12T06:07:46.973Z,6.40
2019-01-12T06:10:16.373Z,6.40
2019-01-12T06:12:46.069Z,6.40
2019-01-12T06:15:15.879Z,6.40
2019-01-12T06:17:45.372Z,6.40
2019-01-12T06:20:15.714Z,6.40
2019-01-12T06:22:45.119Z,6.50
2019-01-12T06:25:14.659Z,6.40
2019-01-12T06:27:44.036Z,6.50
2019-01-12T06:30:18.642Z,6.50
2019-01-12T06:32:48.015Z,6.40
2019-01-12T06:35:17.560Z,6.50
2019-01-12T06:37:47.149Z,6.40
2019-01-12T06:40:18.083Z,6.50
2019-01-12T06:42:47.582Z,6.40
2019-01-12T06:45:17.726Z,6.40
2019-01-12T06:47:47.218Z,6.40
2019-01-12T06:50:20.089Z,6.40
2019-01-12T06:52:50.482Z,6.40
2019-01-12T06:55:20.024Z,6.40
2019-01-12T06:57:49.732Z,6.40
2019-01-12T07:00:20.353Z,6.40
2019-01-12T07:02:49.820Z,6.40
2019-01-12T07:05:19.711Z,6.40
2019-01-12T07:07:49.566Z,6.40
2019-01-12T07:10:19.239Z,6.40
2019-01-12T07:12:48.693Z,6.40
2019-01-12T07:15:18.106Z,6.40
2019-01-12T07:17:47.471Z,6.40
2019-01-12T07:20:17.811Z,6.40
2019-01-12T07:22:47.361Z,6.40
2019-01-12T07:25:16.762Z,6.40
2019-01-12T07:27:46.299Z,6.40
2019-01-12T07:30:20.902Z,6.40
2019-01-12T07:32:50.271Z,6.40
2019-01-12T07:35:20.057Z,6.40
2019-01-12T07:37:49.413Z,6.40
2019-01-12T07:40:18.833Z,6.40
2019-01-12T07:42:48.232Z,6.40
2019-01-12T07:45:17.609Z,6.40
2019-01-12T07:47:46.977Z,6.40
2019-01-12T07:50:16.618Z,6.40
2019-01-12T07:52:45.962Z,6.40
2019-01-12T07:55:15.731Z,6.40
2019-01-12T07:57:45.129Z,6.40
2019-01-12T08:00:21.659Z,6.40
2019-01-12T08:02:51.319Z,6.40
2019-01-12T08:05:21.930Z,6.40
2019-01-12T08:07:51.426Z,6.40
2019-01-12T08:10:23.120Z,6.40
2019-01-12T08:12:52.644Z,6.40
2019-01-12T08:15:22.114Z,6.40
2019-01-12T08:17:51.508Z,6.40
2019-01-12T08:20:20.881Z,6.40
2019-01-12T08:22:50.449Z,6.30
2019-01-12T08:25:19.950Z,6.40
2019-01-12T08:27:49.361Z,6.40
2019-01-12T08:30:19.279Z,6.40
2019-01-12T08:32:48.685Z,6.40
2019-01-12T08:35:18.120Z,6.40
2019-01-12T08:37:47.524Z,6.40
2019-01-12T08:40:16.949Z,6.40
2019-01-12T08:42:46.487Z,6.40
2019-01-12T08:45:15.912Z,6.40
2019-01-12T08:47:45.279Z,6.40
2019-01-12T08:50:19.474Z,6.40
2019-01-12T08:52:48.933Z,6.40
2019-01-12T08:55:18.307Z,6.30
2019-01-12T08:57:47.845Z,6.30
2019-01-12T09:00:23.571Z,6.30
2019-01-12T09:02:52.994Z,6.30
2019-01-12T09:05:22.425Z,6.30
2019-01-12T09:07:51.788Z,6.30
2019-01-12T09:10:22.272Z,6.30
2019-01-12T09:12:51.782Z,6.40
2019-01-12T09:15:22.022Z,6.40
2019-01-12T09:17:51.397Z,6.40
2019-01-12T09:20:21.187Z,6.40
2019-01-12T09:22:50.534Z,6.40
2019-01-12T09:25:20.266Z,6.50
2019-01-12T09:27:49.625Z,6.40
2019-01-12T09:30:20.825Z,6.50
2019-01-12T09:32:50.711Z,6.50
2019-01-12T09:35:20.203Z,6.60
2019-01-12T09:37:49.741Z,6.60
2019-01-12T09:40:20.680Z,6.60
2019-01-12T09:42:50.173Z,6.50
2019-01-12T09:45:19.560Z,6.50
2019-01-12T09:47:49.096Z,6.50
2019-01-12T09:50:19.679Z,6.50
2019-01-12T09:52:49.423Z,6.50
2019-01-12T09:55:18.797Z,6.60
2019-01-12T09:57:48.503Z,6.60
2019-01-12T10:00:26.423Z,6.50
2019-01-12T10:02:55.820Z,6.50
2019-01-12T10:05:25.650Z,6.50
2019-01-12T10:07:55.431Z,6.50
2019-01-12T10:10:24.819Z,6.50
2019-01-12T10:12:54.337Z,6.50
2019-01-12T10:15:24.067Z,6.60
2019-01-12T10:17:53.647Z,6.50
2019-01-12T10:20:23.037Z,6.50
2019-01-12T10:22:52.464Z,6.50
2019-01-12T10:25:21.872Z,6.50
2019-01-12T10:27:51.562Z,6.50
2019-01-12T10:30:25.666Z,6.40
2019-01-12T10:32:55.215Z,6.40
2019-01-12T10:35:25.173Z,6.40
2019-01-12T10:37:54.778Z,6.40
2019-01-12T10:40:24.138Z,6.40
2019-01-12T10:42:53.733Z,6.40
2019-01-12T10:45:24.509Z,6.40
2019-01-12T10:47:54.712Z,6.40
2019-01-12T10:50:32.917Z,6.40
2019-01-12T10:53:02.427Z,6.30
2019-01-12T10:55:32.204Z,6.30
2019-01-12T10:58:02.710Z,6.30
2019-01-12T11:00:34.561Z,6.30
2019-01-12T11:03:04.094Z,6.30
2019-01-12T11:05:33.499Z,6.30
2019-01-12T11:08:03.170Z,6.30
2019-01-12T11:10:33.028Z,6.30
2019-01-12T11:13:02.426Z,6.30
2019-01-12T11:15:31.793Z,6.30
2019-01-12T11:18:01.547Z,6.40
2019-01-12T11:20:30.994Z,6.40
2019-01-12T11:23:00.573Z,6.40
2019-01-12T11:25:30.373Z,6.40
2019-01-12T11:27:59.756Z,6.40
2019-01-12T11:30:29.569Z,6.40
2019-01-12T11:32:59.482Z,6.40
2019-01-12T11:35:29.317Z,6.40
2019-01-12T11:37:58.797Z,6.40
2019-01-12T11:40:29.136Z,6.40
2019-01-12T11:42:58.523Z,6.40
2019-01-12T11:45:27.950Z,6.50
2019-01-12T11:47:57.661Z,6.50
2019-01-12T11:50:27.037Z,6.50
2019-01-12T11:52:56.448Z,6.50
2019-01-12T11:55:25.888Z,6.50
2019-01-12T11:57:55.388Z,6.50
2019-01-12T12:00:26.983Z,6.60
2019-01-12T12:02:56.443Z,6.60
2019-01-12T12:05:26.301Z,6.60
2019-01-12T12:07:57.302Z,6.60
2019-01-12T12:10:26.871Z,6.60
2019-01-12T12:12:56.366Z,6.60
2019-01-12T12:15:25.882Z,6.60
2019-01-12T12:17:55.275Z,6.70
2019-01-12T12:20:28.617Z,6.70
2019-01-12T12:22:58.358Z,6.70
2019-01-12T12:25:28.038Z,6.70
2019-01-12T12:27:57.514Z,6.70
2019-01-12T12:30:28.871Z,6.70
2019-01-12T12:32:58.318Z,6.70
2019-01-12T12:35:28.183Z,6.70
2019-01-12T12:37:57.663Z,6.70
2019-01-12T12:40:27.283Z,6.70
2019-01-12T12:42:56.640Z,6.70
2019-01-12T12:45:29.269Z,6.70
2019-01-12T12:47:59.057Z,6.70
2019-01-12T12:50:28.536Z,6.70
2019-01-12T12:52:58.188Z,6.70
2019-01-12T12:55:27.603Z,6.70
2019-01-12T12:57:57.320Z,6.80
2019-01-12T13:00:29.176Z,6.70
2019-01-12T13:02:58.834Z,6.80
2019-01-12T13:05:28.410Z,6.80
2019-01-12T13:07:57.759Z,6.80
2019-01-12T13:10:31.509Z,6.80
2019-01-12T13:13:00.986Z,6.80
2019-01-12T13:15:30.470Z,6.80
2019-01-12T13:18:00.027Z,6.80
2019-01-12T13:20:29.618Z,6.80
2019-01-12T13:22:59.158Z,6.90
2019-01-12T13:25:29.574Z,6.90
2019-01-12T13:27:59.413Z,6.90
2019-01-12T13:30:29.302Z,6.80
2019-01-12T13:32:58.667Z,6.90
2019-01-12T13:35:28.207Z,6.90
2019-01-12T13:37:57.625Z,6.90
2019-01-12T13:40:30.564Z,6.80
2019-01-12T13:43:00.075Z,6.90
2019-01-12T13:45:29.486Z,6.90
2019-01-12T13:47:58.951Z,6.90
2019-01-12T13:50:28.833Z,6.90
2019-01-12T13:52:58.517Z,6.90
2019-01-12T13:55:29.187Z,6.90
2019-01-12T13:57:58.595Z,7.00
2019-01-12T14:00:37.433Z,7.00
2019-01-12T14:03:08.120Z,6.90
2019-01-12T14:05:37.502Z,7.00
2019-01-12T14:08:07.709Z,6.90
2019-01-12T14:10:37.109Z,7.00
2019-01-12T14:13:07.004Z,6.90
2019-01-12T14:15:36.438Z,7.00
2019-01-12T14:18:06.123Z,7.00
2019-01-12T14:20:37.959Z,7.00
2019-01-12T14:23:07.683Z,7.00
2019-01-12T14:25:37.145Z,7.10
2019-01-12T14:28:06.640Z,7.00
2019-01-12T14:30:35.997Z,7.00
2019-01-12T14:33:05.904Z,7.10
2019-01-12T14:35:35.952Z,7.10
2019-01-12T14:38:07.131Z,7.10
2019-01-12T14:40:36.543Z,7.10
2019-01-12T14:43:05.943Z,7.10
2019-01-12T14:45:35.995Z,7.10
2019-01-12T14:48:06.632Z,7.10
2019-01-12T14:50:36.007Z,7.20
2019-01-12T14:53:05.529Z,7.20
2019-01-12T14:55:34.971Z,7.20
2019-01-12T14:58:04.797Z,7.20
2019-01-12T15:00:34.178Z,7.20
2019-01-12T15:03:03.551Z,7.20
2019-01-12T15:05:33.917Z,7.20
2019-01-12T15:08:03.282Z,7.20
2019-01-12T15:10:32.751Z,7.20
2019-01-12T15:13:02.127Z,7.20
2019-01-12T15:15:31.606Z,7.20
2019-01-12T15:18:01.130Z,7.20
2019-01-12T15:20:31.377Z,7.20
2019-01-12T15:23:00.758Z,7.20
2019-01-12T15:25:30.196Z,7.20
2019-01-12T15:27:59.675Z,7.20
2019-01-12T15:30:32.480Z,7.20
2019-01-12T15:33:04.082Z,7.20
2019-01-12T15:35:34.948Z,7.20
2019-01-12T15:38:04.509Z,7.20
2019-01-12T15:40:33.900Z,7.20
2019-01-12T15:43:03.730Z,7.20
2019-01-12T15:45:33.159Z,7.20
2019-01-12T15:48:02.987Z,7.20
2019-01-12T15:50:33.036Z,7.20
2019-01-12T15:53:02.995Z,7.20
2019-01-12T15:55:32.408Z,7.20
2019-01-12T15:58:02.191Z,7.20
2019-01-12T16:00:31.995Z,7.20
2019-01-12T16:03:01.355Z,7.20
2019-01-12T16:05:31.236Z,7.10
2019-01-12T16:08:00.644Z,7.10
2019-01-12T16:10:30.146Z,7.10
2019-01-12T16:12:59.505Z,7.10
2019-01-12T16:15:29.232Z,7.10
2019-01-12T16:17:58.980Z,7.00
2019-01-12T16:20:41.775Z,7.00
2019-01-12T16:23:12.881Z,7.00
2019-01-12T16:25:43.939Z,7.00
2019-01-12T16:28:13.443Z,6.90
2019-01-12T16:30:43.192Z,6.90
2019-01-12T16:33:12.638Z,6.90
2019-01-12T16:35:42.459Z,6.80
2019-01-12T16:38:11.749Z,6.80
2019-01-12T16:40:41.166Z,6.90
2019-01-12T16:43:10.555Z,6.90
2019-01-12T16:45:39.937Z,6.90
2019-01-12T16:48:09.453Z,6.90
2019-01-12T16:50:38.850Z,6.90
2019-01-12T16:53:08.288Z,7.00
2019-01-12T16:55:38.050Z,7.00
2019-01-12T16:58:07.583Z,7.00
2019-01-12T17:00:37.399Z,7.00
2019-01-12T17:03:07.360Z,7.00
2019-01-12T17:05:38.418Z,7.00
2019-01-12T17:08:07.897Z,7.00
2019-01-12T17:10:37.335Z,7.00
2019-01-12T17:13:06.729Z,7.00
2019-01-12T17:15:36.124Z,7.00
2019-01-12T17:18:05.441Z,7.00
2019-01-12T17:20:34.856Z,7.00
2019-01-12T17:23:05.464Z,7.00
2019-01-12T17:25:35.933Z,7.00
2019-01-12T17:28:06.105Z,7.00
2019-01-12T17:30:35.781Z,7.00
2019-01-12T17:33:05.157Z,7.00
2019-01-12T17:35:34.572Z,7.00
2019-01-12T17:38:04.343Z,7.00
2019-01-12T17:40:33.894Z,7.00
2019-01-12T17:43:03.284Z,7.00
2019-01-12T17:45:32.998Z,7.00
2019-01-12T17:48:02.681Z,7.00
2019-01-12T17:50:32.443Z,7.00
2019-01-12T17:53:04.879Z,7.00
2019-01-12T17:55:34.418Z,7.00
2019-01-12T17:58:03.786Z,7.00
2019-01-12T18:00:50.525Z,7.00
2019-01-12T18:03:20.524Z,7.00
2019-01-12T18:05:49.939Z,7.00
2019-01-12T18:08:19.398Z,7.00
2019-01-12T18:10:48.943Z,7.00
2019-01-12T18:13:18.430Z,7.00
2019-01-12T18:15:47.841Z,7.00
2019-01-12T18:18:24.360Z,6.90
2019-01-12T18:20:53.869Z,6.90
2019-01-12T18:23:23.596Z,6.90
2019-01-12T18:25:53.011Z,6.90
2019-01-12T18:28:22.417Z,6.90
2019-01-12T18:30:51.894Z,6.90
2019-01-12T18:33:21.308Z,6.90
2019-01-12T18:35:51.097Z,6.90
2019-01-12T18:38:20.950Z,6.90
2019-01-12T18:40:50.443Z,6.90
2019-01-12T18:43:19.872Z,6.90
2019-01-12T18:45:49.209Z,6.90
2019-01-12T18:48:18.905Z,6.90
2019-01-12T18:50:48.374Z,6.90
2019-01-12T18:53:17.720Z,6.90
2019-01-12T18:55:47.186Z,7.00
2019-01-12T18:58:17.185Z,7.00
2019-01-12T19:00:46.562Z,7.00
2019-01-12T19:03:15.991Z,7.00
2019-01-12T19:05:45.404Z,7.00
2019-01-12T19:08:14.830Z,7.00
2019-01-12T19:10:44.518Z,7.00
2019-01-12T19:13:13.909Z,7.00
2019-01-12T19:15:43.559Z,7.10
2019-01-12T19:18:13.095Z,7.10
2019-01-12T19:20:42.501Z,7.10
2019-01-12T19:23:11.930Z,7.10
2019-01-12T19:25:43.758Z,7.10
2019-01-12T19:28:13.352Z,7.00
2019-01-12T19:30:43.193Z,7.00
2019-01-12T19:33:12.543Z,7.00
2019-01-12T19:35:42.064Z,7.00
2019-01-12T19:38:11.621Z,7.00
2019-01-12T19:40:40.998Z,7.00
2019-01-12T19:43:10.532Z,7.00
2019-01-12T19:45:39.797Z,7.00
2019-01-12T19:48:10.412Z,6.90
2019-01-12T19:50:40.066Z,6.90
2019-01-12T19:53:09.490Z,6.90
2019-01-12T19:55:38.868Z,6.90
2019-01-12T19:58:08.172Z,6.90
2019-01-12T20:00:37.536Z,6.90
2019-01-12T20:03:07.115Z,6.90
2019-01-12T20:05:36.831Z,6.90
2019-01-12T20:08:06.220Z,6.90
2019-01-12T20:10:35.870Z,6.90
2019-01-12T20:13:05.408Z,6.90
2019-01-12T20:15:34.709Z,6.90
2019-01-12T20:18:04.218Z,6.90
2019-01-12T20:20:33.590Z,6.90
2019-01-12T20:23:03.018Z,6.80
2019-01-12T20:25:33.042Z,6.80
2019-01-12T20:28:09.110Z,6.80
2019-01-12T20:31:15.032Z,6.80
2019-01-12T20:33:53.459Z,6.80
2019-01-12T20:36:53.338Z,6.80
2019-01-12T20:40:01.884Z,6.80
2019-01-12T20:43:01.101Z,6.80
2019-01-12T20:46:32.469Z,6.80
2019-01-12T20:49:44.322Z,6.80
2019-01-12T20:52:55.907Z,6.80
2019-01-12T20:55:59.454Z,6.70
2019-01-12T20:58:56.510Z,6.70
2019-01-12T21:02:12.011Z,6.70
2019-01-12T21:05:10.856Z,6.70
2019-01-12T21:08:02.366Z,6.70
2019-01-12T21:11:09.086Z,6.60
2019-01-12T21:14:15.990Z,6.60
2019-01-12T21:16:55.901Z,6.60
2019-01-12T21:19:25.274Z,6.50
2019-01-12T21:21:54.859Z,6.50
2019-01-12T21:24:24.271Z,6.50
2019-01-12T21:26:54.469Z,6.40
2019-01-12T21:29:23.839Z,6.40
2019-01-12T21:31:53.633Z,6.40
2019-01-12T21:34:24.549Z,6.30
2019-01-12T21:36:54.296Z,6.30
2019-01-12T21:39:23.704Z,6.30
2019-01-12T21:41:53.466Z,6.30
2019-01-12T21:44:23.136Z,6.30
2019-01-12T21:46:52.564Z,6.30
2019-01-12T21:49:21.969Z,6.30
2019-01-12T21:51:51.724Z,6.30
2019-01-12T21:54:21.097Z,6.30
2019-01-12T21:56:51.026Z,6.40
2019-01-12T21:59:21.026Z,6.40
2019-01-12T22:01:50.494Z,6.40
2019-01-12T22:04:20.442Z,6.40
2019-01-12T22:06:51.094Z,6.40
2019-01-12T22:09:20.430Z,6.40
2019-01-12T22:11:49.896Z,6.50
2019-01-12T22:14:19.288Z,6.50
2019-01-12T22:17:00.974Z,6.50
2019-01-12T22:19:31.439Z,6.50
2019-01-12T22:22:00.897Z,6.50
2019-01-12T22:24:30.303Z,6.50
2019-01-12T22:27:00.038Z,6.50
2019-01-12T22:29:30.956Z,6.50
2019-01-12T22:32:00.850Z,6.50
2019-01-12T22:34:30.973Z,6.50
2019-01-12T22:37:00.419Z,6.40
2019-01-12T22:39:30.616Z,6.40
2019-01-12T22:42:00.003Z,6.40
2019-01-12T22:44:29.498Z,6.40
2019-01-12T22:46:59.321Z,6.40
2019-01-12T22:49:29.126Z,6.30
2019-01-12T22:51:58.596Z,6.30
2019-01-12T22:54:28.692Z,6.40
2019-01-12T22:56:58.143Z,6.30
2019-01-12T22:59:27.565Z,6.40
2019-01-12T23:02:05.284Z,6.30
2019-01-12T23:04:35.322Z,6.40
2019-01-12T23:07:11.433Z,6.30
2019-01-12T23:09:37.510Z,6.40
2019-01-12T23:12:07.732Z,6.30
2019-01-12T23:14:37.062Z,6.40
2019-01-12T23:17:07.024Z,6.40
2019-01-12T23:19:37.587Z,6.40
2019-01-12T23:22:06.919Z,6.40
2019-01-12T23:24:36.207Z,6.40
2019-01-12T23:27:05.638Z,6.40
2019-01-12T23:29:34.998Z,6.40
2019-01-12T23:32:04.973Z,6.50
2019-01-12T23:34:34.412Z,6.50
2019-01-12T23:37:04.096Z,6.60
2019-01-12T23:39:33.498Z,6.60
2019-01-12T23:42:02.852Z,6.60
2019-01-12T23:44:33.174Z,6.70
2019-01-12T23:47:03.231Z,6.70
2019-01-12T23:49:32.981Z,6.70
2019-01-12T23:52:02.481Z,6.80
2019-01-12T23:54:32.086Z,6.80
2019-01-12T23:57:01.533Z,6.80
2019-01-12T23:59:31.038Z,6.80
